PWSweather.com
Personal Weather Stations
Station Observations
KOMOKA
Komoka Village, Komoka, ON N0L IRO

Komoka VillageKomoka, ON N0L IRO

Lat: 42.9542444, Lon: -81.4348861

Elevation: 805

Station Type: Davis Vantage Pro 2

Latest ConditionsUpdated 9:40:20 PM EST Friday, Nov 21, 2014
Currently Today's Max Today's Min Today's Average
Temperature 16.3°F-8.7°C 25.9°F-3.4°C 10.4°F-12.0°C 17.3°F-8.2°C
Dew Point 11.8°F-11.2°C 17.8°F-7.9°C 7.5°F-13.6°C 11.4°F-11.4°C
Winds Calm Calm 7.0 mph W11.3 kmh W - 2.5 mph 4.0 kmh
Wind Gusts -- 17.0 mph27.4 kmh - -
Humidity 82% 89% 57% 78%
Pressure 30.48 in1032.2 mb 30.54 in1034.2 mb 30.18 in1022.0 mb -
Precipitation - 0.02 in0.5 mm - -
Hour Temp Dew Point Humidity Winds Wind Gusts Pressure Precip Precip Rate Daily Precip Total
09:40 PM 16.3°F-8.7°C 11.8°F-11.2°C 82% Calm Calm -- 30.48 in1032.2 mb 0.00 in0.0 mm 0.00 in/hr0.0 mm/hr 0.02 in0.5 mm
09:33 PM 16.3°F-8.7°C 11.8°F-11.2°C 82% Calm Calm 1.0 mph1.6 kmh 30.48 in1032.2 mb 0.00 in0.0 mm 0.00 in/hr0.0 mm/hr 0.02 in0.5 mm
09:26 PM 16.3°F-8.7°C 11.5°F-11.4°C 81% Calm Calm 1.0 mph1.6 kmh 30.48 in1032.2 mb 0.00 in0.0 mm 0.00 in/hr0.0 mm/hr 0.02 in0.5 mm
09:19 PM 16.5°F-8.6°C 11.5°F-11.4°C 80% Calm Calm -- 30.49 in1032.5 mb 0.00 in0.0 mm 0.00 in/hr0.0 mm/hr 0.02 in0.5 mm
09:12 PM 16.5°F-8.6°C 11.5°F-11.4°C 80% Calm Calm 1.0 mph1.6 kmh 30.49 in1032.5 mb 0.00 in0.0 mm 0.00 in/hr0.0 mm/hr 0.02 in0.5 mm
09:05 PM 16.9°F-8.4°C 11.7°F-11.3°C 80% Calm Calm 1.0 mph1.6 kmh 30.49 in1032.5 mb 0.00 in0.0 mm 0.00 in/hr0.0 mm/hr 0.02 in0.5 mm
08:58 PM 16.7°F-8.5°C 11.7°F-11.3°C 80% Calm Calm 1.0 mph1.6 kmh 30.49 in1032.5 mb 0.00 in0.0 mm 0.00 in/hr0.0 mm/hr 0.02 in0.5 mm
08:51 PM 16.9°F-8.4°C 11.5°F-11.4°C 79% Calm Calm 1.0 mph1.6 kmh 30.49 in1032.5 mb 0.00 in0.0 mm 0.00 in/hr0.0 mm/hr 0.02 in0.5 mm
08:44 PM 17.1°F-8.3°C 11.5°F-11.4°C 78% Calm Calm 1.0 mph1.6 kmh 30.49 in1032.5 mb 0.00 in0.0 mm 0.00 in/hr0.0 mm/hr 0.02 in0.5 mm
08:37 PM 17.2°F-8.2°C 11.7°F-11.3°C 78% Calm Calm 1.0 mph1.6 kmh 30.49 in1032.5 mb 0.00 in0.0 mm 0.00 in/hr0.0 mm/hr 0.02 in0.5 mm
08:30 PM 17.4°F-8.1°C 11.7°F-11.3°C 78% Calm Calm -- 30.50 in1032.8 mb 0.00 in0.0 mm 0.00 in/hr0.0 mm/hr 0.02 in0.5 mm
08:23 PM 17.4°F-8.1°C 11.7°F-11.3°C 78% Calm Calm 3.0 mph4.8 kmh 30.50 in1032.8 mb 0.00 in0.0 mm 0.00 in/hr0.0 mm/hr 0.02 in0.5 mm
08:16 PM 17.4°F-8.1°C 11.7°F-11.3°C 78% Calm Calm 3.0 mph4.8 kmh 30.50 in1032.8 mb 0.00 in0.0 mm 0.00 in/hr0.0 mm/hr 0.02 in0.5 mm
08:09 PM 17.4°F-8.1°C 11.5°F-11.4°C 77% Calm Calm 1.0 mph1.6 kmh 30.50 in1032.8 mb 0.00 in0.0 mm 0.00 in/hr0.0 mm/hr 0.02 in0.5 mm
08:02 PM 17.6°F-8.0°C 11.3°F-11.5°C 76% Calm Calm 3.0 mph4.8 kmh 30.50 in1032.8 mb 0.00 in0.0 mm 0.00 in/hr0.0 mm/hr 0.02 in0.5 mm
07:55 PM 17.8°F-7.9°C 11.5°F-11.4°C 76% Calm Calm 3.0 mph4.8 kmh 30.50 in1032.8 mb 0.00 in0.0 mm 0.00 in/hr0.0 mm/hr 0.02 in0.5 mm
07:48 PM 17.8°F-7.9°C 11.5°F-11.4°C 76% Calm Calm 3.0 mph4.8 kmh 30.51 in1033.2 mb 0.00 in0.0 mm 0.00 in/hr0.0 mm/hr 0.02 in0.5 mm
07:41 PM 18.0°F-7.8°C 11.7°F-11.3°C 76% Calm Calm 3.0 mph4.8 kmh 30.51 in1033.2 mb 0.00 in0.0 mm 0.00 in/hr0.0 mm/hr 0.02 in0.5 mm
07:34 PM 18.0°F-7.8°C 11.7°F-11.3°C 76% Calm Calm 4.0 mph6.4 kmh 30.51 in1033.2 mb 0.00 in0.0 mm 0.00 in/hr0.0 mm/hr 0.02 in0.5 mm
07:27 PM 18.0°F-7.8°C 11.7°F-11.3°C 76% Calm Calm 4.0 mph6.4 kmh 30.52 in1033.5 mb 0.00 in0.0 mm 0.00 in/hr0.0 mm/hr 0.02 in0.5 mm
07:20 PM 18.0°F-7.8°C 11.3°F-11.5°C 75% Calm Calm 4.0 mph6.4 kmh 30.52 in1033.5 mb 0.00 in0.0 mm 0.00 in/hr0.0 mm/hr 0.02 in0.5 mm
07:13 PM 18.0°F-7.8°C 11.7°F-11.3°C 76% Calm Calm 3.0 mph4.8 kmh 30.52 in1033.5 mb 0.00 in0.0 mm 0.00 in/hr0.0 mm/hr 0.02 in0.5 mm
07:06 PM 17.8°F-7.9°C 11.5°F-11.4°C 76% Calm Calm 3.0 mph4.8 kmh 30.52 in1033.5 mb 0.00 in0.0 mm 0.00 in/hr0.0 mm/hr 0.02 in0.5 mm
06:59 PM 17.8°F-7.9°C 11.5°F-11.4°C 76% Calm Calm 4.0 mph6.4 kmh 30.52 in1033.5 mb 0.00 in0.0 mm 0.00 in/hr0.0 mm/hr 0.02 in0.5 mm
06:52 PM 18.0°F-7.8°C 11.7°F-11.3°C 76% Calm Calm 1.0 mph1.6 kmh 30.52 in1033.5 mb 0.00 in0.0 mm 0.00 in/hr0.0 mm/hr 0.02 in0.5 mm
06:45 PM 18.0°F-7.8°C 11.5°F-11.4°C 75% Calm Calm 3.0 mph4.8 kmh 30.53 in1033.9 mb 0.00 in0.0 mm 0.00 in/hr0.0 mm/hr 0.02 in0.5 mm
06:38 PM 18.1°F-7.7°C 11.5°F-11.4°C 75% Calm Calm 3.0 mph4.8 kmh 30.53 in1033.9 mb 0.00 in0.0 mm 0.00 in/hr0.0 mm/hr 0.02 in0.5 mm
06:31 PM 18.1°F-7.7°C 11.7°F-11.3°C 75% Calm Calm 3.0 mph4.8 kmh 30.53 in1033.9 mb 0.00 in0.0 mm 0.00 in/hr0.0 mm/hr 0.02 in0.5 mm
06:24 PM 18.3°F-7.6°C 11.5°F-11.4°C 74% Calm Calm 3.0 mph4.8 kmh 30.53 in1033.9 mb 0.00 in0.0 mm 0.00 in/hr0.0 mm/hr 0.02 in0.5 mm
06:17 PM 18.5°F-7.5°C 11.7°F-11.3°C 74% Calm Calm 4.0 mph6.4 kmh 30.54 in1034.2 mb 0.00 in0.0 mm 0.00 in/hr0.0 mm/hr 0.02 in0.5 mm
06:10 PM 18.7°F-7.4°C 11.7°F-11.3°C 74% Calm Calm 1.0 mph1.6 kmh 30.54 in1034.2 mb 0.00 in0.0 mm 0.00 in/hr0.0 mm/hr 0.02 in0.5 mm
06:03 PM 18.9°F-7.3°C 11.8°F-11.2°C 74% Calm Calm 1.0 mph1.6 kmh 30.54 in1034.2 mb 0.00 in0.0 mm 0.00 in/hr0.0 mm/hr 0.02 in0.5 mm
05:56 PM 19.0°F-7.2°C 11.8°F-11.2°C 73% Calm Calm 4.0 mph6.4 kmh 30.54 in1034.2 mb 0.00 in0.0 mm 0.00 in/hr0.0 mm/hr 0.02 in0.5 mm
05:49 PM 19.2°F-7.1°C 11.7°F-11.3°C 72% Calm Calm 3.0 mph4.8 kmh 30.54 in1034.2 mb 0.00 in0.0 mm 0.00 in/hr0.0 mm/hr 0.02 in0.5 mm
05:42 PM 19.8°F-6.8°C 11.8°F-11.2°C 71% Calm Calm 3.0 mph4.8 kmh 30.54 in1034.2 mb 0.00 in0.0 mm 0.00 in/hr0.0 mm/hr 0.02 in0.5 mm
05:35 PM 19.9°F-6.7°C 12.0°F-11.1°C 71% Calm Calm 1.0 mph1.6 kmh 30.54 in1034.2 mb 0.00 in0.0 mm 0.00 in/hr0.0 mm/hr 0.02 in0.5 mm
05:28 PM 20.5°F-6.4°C 12.2°F-11.0°C 70% Calm Calm 4.0 mph6.4 kmh 30.54 in1034.2 mb 0.00 in0.0 mm 0.00 in/hr0.0 mm/hr 0.02 in0.5 mm
05:21 PM 20.7°F-6.3°C 12.7°F-10.7°C 71% Calm Calm 4.0 mph6.4 kmh 30.54 in1034.2 mb 0.00 in0.0 mm 0.00 in/hr0.0 mm/hr 0.02 in0.5 mm
05:14 PM 20.8°F-6.2°C 12.6°F-10.8°C 70% Calm Calm 3.0 mph4.8 kmh 30.53 in1033.9 mb 0.00 in0.0 mm 0.00 in/hr0.0 mm/hr 0.02 in0.5 mm
05:07 PM 21.0°F-6.1°C 12.6°F-10.8°C 69% Calm Calm 4.0 mph6.4 kmh 30.53 in1033.9 mb 0.00 in0.0 mm 0.00 in/hr0.0 mm/hr 0.02 in0.5 mm
05:00 PM 21.4°F-5.9°C 12.7°F-10.7°C 69% Calm Calm 4.0 mph6.4 kmh 30.53 in1033.9 mb 0.00 in0.0 mm 0.00 in/hr0.0 mm/hr 0.02 in0.5 mm
04:53 PM 21.6°F-5.8°C 12.7°F-10.7°C 68% Calm Calm 4.0 mph6.4 kmh 30.53 in1033.9 mb 0.00 in0.0 mm 0.00 in/hr0.0 mm/hr 0.02 in0.5 mm
04:46 PM 21.9°F-5.6°C 12.7°F-10.7°C 67% 1.0 mph SW1.6 kmh SW 8.0 mph12.9 kmh 30.53 in1033.9 mb 0.00 in0.0 mm 0.00 in/hr0.0 mm/hr 0.02 in0.5 mm
04:39 PM 22.3°F-5.4°C 12.6°F-10.8°C 66% 1.0 mph SSW1.6 kmh SSW 9.0 mph14.5 kmh 30.53 in1033.9 mb 0.00 in0.0 mm 0.00 in/hr0.0 mm/hr 0.02 in0.5 mm
04:32 PM 22.6°F-5.2°C 12.6°F-10.8°C 65% 3.0 mph SSW4.8 kmh SSW 9.0 mph14.5 kmh 30.53 in1033.9 mb 0.00 in0.0 mm 0.00 in/hr0.0 mm/hr 0.02 in0.5 mm
04:25 PM 23.2°F-4.9°C 13.1°F-10.5°C 65% 1.0 mph WSW1.6 kmh WSW 7.0 mph11.3 kmh 30.53 in1033.9 mb 0.00 in0.0 mm 0.00 in/hr0.0 mm/hr 0.02 in0.5 mm
04:18 PM 23.5°F-4.7°C 13.8°F-10.1°C 66% 1.0 mph WSW1.6 kmh WSW 7.0 mph11.3 kmh 30.53 in1033.9 mb 0.00 in0.0 mm 0.00 in/hr0.0 mm/hr 0.02 in0.5 mm
04:11 PM 23.7°F-4.6°C 14.0°F-10.0°C 66% 1.0 mph W1.6 kmh W 7.0 mph11.3 kmh 30.53 in1033.9 mb 0.00 in0.0 mm 0.00 in/hr0.0 mm/hr 0.02 in0.5 mm
04:04 PM 23.7°F-4.6°C 14.0°F-10.0°C 66% 3.0 mph WSW4.8 kmh WSW 8.0 mph12.9 kmh 30.53 in1033.9 mb 0.00 in0.0 mm 0.00 in/hr0.0 mm/hr 0.02 in0.5 mm
03:57 PM 23.7°F-4.6°C 13.8°F-10.1°C 65% 3.0 mph WSW4.8 kmh WSW 8.0 mph12.9 kmh 30.53 in1033.9 mb 0.00 in0.0 mm 0.00 in/hr0.0 mm/hr 0.02 in0.5 mm
03:50 PM 23.9°F-4.5°C 13.8°F-10.1°C 65% 4.0 mph W6.4 kmh W 13.0 mph20.9 kmh 30.53 in1033.9 mb 0.00 in0.0 mm 0.00 in/hr0.0 mm/hr 0.02 in0.5 mm
03:43 PM 23.5°F-4.7°C 13.5°F-10.3°C 65% 3.0 mph W4.8 kmh W 13.0 mph20.9 kmh 30.52 in1033.5 mb 0.00 in0.0 mm 0.00 in/hr0.0 mm/hr 0.02 in0.5 mm
03:36 PM 23.4°F-4.8°C 13.3°F-10.4°C 65% 3.0 mph W4.8 kmh W 9.0 mph14.5 kmh 30.53 in1033.9 mb 0.00 in0.0 mm 0.00 in/hr0.0 mm/hr 0.02 in0.5 mm
03:29 PM 23.2°F-4.9°C 13.1°F-10.5°C 65% 3.0 mph WSW4.8 kmh WSW 13.0 mph20.9 kmh 30.53 in1033.9 mb 0.00 in0.0 mm 0.00 in/hr0.0 mm/hr 0.02 in0.5 mm
03:22 PM 23.2°F-4.9°C 12.7°F-10.7°C 64% 4.0 mph W6.4 kmh W 9.0 mph14.5 kmh 30.53 in1033.9 mb 0.00 in0.0 mm 0.00 in/hr0.0 mm/hr 0.02 in0.5 mm
03:15 PM 23.2°F-4.9°C 12.7°F-10.7°C 64% 3.0 mph W4.8 kmh W 8.0 mph12.9 kmh 30.53 in1033.9 mb 0.00 in0.0 mm 0.00 in/hr0.0 mm/hr 0.02 in0.5 mm
03:08 PM 23.2°F-4.9°C 12.4°F-10.9°C 63% 4.0 mph WSW6.4 kmh WSW 9.0 mph14.5 kmh 30.53 in1033.9 mb 0.00 in0.0 mm 0.00 in/hr0.0 mm/hr 0.02 in0.5 mm
03:01 PM 23.2°F-4.9°C 12.0°F-11.1°C 62% 4.0 mph WSW6.4 kmh WSW 11.0 mph17.7 kmh 30.53 in1033.9 mb 0.00 in0.0 mm 0.00 in/hr0.0 mm/hr 0.02 in0.5 mm
02:54 PM 23.2°F-4.9°C 12.0°F-11.1°C 62% 4.0 mph W6.4 kmh W 13.0 mph20.9 kmh 30.53 in1033.9 mb 0.00 in0.0 mm 0.00 in/hr0.0 mm/hr 0.02 in0.5 mm
02:47 PM 23.2°F-4.9°C 11.7°F-11.3°C 61% 4.0 mph W6.4 kmh W 13.0 mph20.9 kmh 30.53 in1033.9 mb 0.01 in0.3 mm 0.00 in/hr0.0 mm/hr 0.02 in0.5 mm
02:40 PM 23.2°F-4.9°C 11.3°F-11.5°C 60% 5.0 mph W8.0 kmh W 15.0 mph24.1 kmh 30.53 in1033.9 mb 0.01 in0.3 mm 0.00 in/hr0.0 mm/hr 0.02 in0.5 mm
02:33 PM 23.4°F-4.8°C 11.1°F-11.6°C 59% 5.0 mph W8.0 kmh W 12.0 mph19.3 kmh 30.53 in1033.9 mb 0.01 in0.3 mm 0.00 in/hr0.0 mm/hr 0.02 in0.5 mm
02:26 PM 23.7°F-4.6°C 11.1°F-11.6°C 58% 5.0 mph W8.0 kmh W 12.0 mph19.3 kmh 30.52 in1033.5 mb 0.01 in0.3 mm 0.00 in/hr0.0 mm/hr 0.02 in0.5 mm
02:19 PM 24.3°F-4.3°C 11.5°F-11.4°C 58% 4.0 mph WSW6.4 kmh WSW 12.0 mph19.3 kmh 30.52 in1033.5 mb 0.01 in0.3 mm 0.00 in/hr0.0 mm/hr 0.02 in0.5 mm
02:12 PM 24.4°F-4.2°C 11.8°F-11.2°C 58% 4.0 mph WSW6.4 kmh WSW 12.0 mph19.3 kmh 30.52 in1033.5 mb 0.02 in0.5 mm 0.00 in/hr0.0 mm/hr 0.02 in0.5 mm
02:05 PM 24.4°F-4.2°C 11.3°F-11.5°C 57% 5.0 mph W8.0 kmh W 12.0 mph19.3 kmh 30.52 in1033.5 mb 0.02 in0.5 mm 0.00 in/hr0.0 mm/hr 0.02 in0.5 mm
01:58 PM 25.0°F-3.9°C 11.8°F-11.2°C 57% 4.0 mph W6.4 kmh W 8.0 mph12.9 kmh 30.53 in1033.9 mb 0.02 in0.5 mm 0.00 in/hr0.0 mm/hr 0.02 in0.5 mm
01:51 PM 25.0°F-3.9°C 12.2°F-11.0°C 58% 4.0 mph W6.4 kmh W 12.0 mph19.3 kmh 30.52 in1033.5 mb 0.02 in0.5 mm 0.00 in/hr0.0 mm/hr 0.02 in0.5 mm
01:44 PM 25.0°F-3.9°C 12.2°F-11.0°C 58% 5.0 mph W8.0 kmh W 16.0 mph25.7 kmh 30.52 in1033.5 mb 0.02 in0.5 mm 0.00 in/hr0.0 mm/hr 0.02 in0.5 mm
01:37 PM 25.0°F-3.9°C 12.9°F-10.6°C 60% 5.0 mph W8.0 kmh W 13.0 mph20.9 kmh 30.53 in1033.9 mb 0.02 in0.5 mm 0.00 in/hr0.0 mm/hr 0.02 in0.5 mm
01:30 PM 24.8°F-4.0°C 14.0°F-10.0°C 63% 4.0 mph W6.4 kmh W 8.0 mph12.9 kmh 30.52 in1033.5 mb 0.02 in0.5 mm 0.00 in/hr0.0 mm/hr 0.02 in0.5 mm
01:23 PM 24.6°F-4.1°C 13.8°F-10.1°C 63% 5.0 mph W8.0 kmh W 12.0 mph19.3 kmh 30.52 in1033.5 mb 0.02 in0.5 mm 0.00 in/hr0.0 mm/hr 0.02 in0.5 mm
01:16 PM 25.0°F-3.9°C 14.4°F-9.8°C 64% 5.0 mph W8.0 kmh W 15.0 mph24.1 kmh 30.52 in1033.5 mb 0.02 in0.5 mm 0.09 in/hr2.3 mm/hr 0.02 in0.5 mm
01:09 PM 25.2°F-3.8°C 15.4°F-9.2°C 66% 5.0 mph W8.0 kmh W 15.0 mph24.1 kmh 30.52 in1033.5 mb 0.01 in0.3 mm 0.00 in/hr0.0 mm/hr 0.01 in0.3 mm
01:02 PM 25.9°F-3.4°C 16.0°F-8.9°C 66% 4.0 mph W6.4 kmh W 12.0 mph19.3 kmh 30.52 in1033.5 mb 0.01 in0.3 mm 0.00 in/hr0.0 mm/hr 0.01 in0.3 mm
12:55 PM 25.9°F-3.4°C 16.3°F-8.7°C 67% 4.0 mph W6.4 kmh W 13.0 mph20.9 kmh 30.52 in1033.5 mb 0.01 in0.3 mm 0.09 in/hr2.3 mm/hr 0.01 in0.3 mm
12:48 PM 25.7°F-3.5°C 16.9°F-8.4°C 69% 5.0 mph W8.0 kmh W 13.0 mph20.9 kmh 30.52 in1033.5 mb 0.00 in0.0 mm 0.00 in/hr0.0 mm/hr 0.00 in0.0 mm
12:41 PM 25.0°F-3.9°C 16.9°F-8.4°C 71% 5.0 mph W8.0 kmh W 13.0 mph20.9 kmh 30.52 in1033.5 mb 0.00 in0.0 mm 0.00 in/hr0.0 mm/hr 0.00 in0.0 mm
12:34 PM 24.6°F-4.1°C 15.8°F-9.0°C 69% 7.0 mph W11.3 kmh W 17.0 mph27.4 kmh 30.52 in1033.5 mb 0.00 in0.0 mm 0.00 in/hr0.0 mm/hr 0.00 in0.0 mm
12:27 PM 25.5°F-3.6°C 16.7°F-8.5°C 69% 4.0 mph W6.4 kmh W 13.0 mph20.9 kmh 30.52 in1033.5 mb 0.00 in0.0 mm 0.00 in/hr0.0 mm/hr 0.00 in0.0 mm
12:20 PM 25.5°F-3.6°C 17.8°F-7.9°C 72% 4.0 mph W6.4 kmh W 11.0 mph17.7 kmh 30.52 in1033.5 mb 0.00 in0.0 mm 0.00 in/hr0.0 mm/hr 0.00 in0.0 mm
12:13 PM 25.2°F-3.8°C 17.4°F-8.1°C 72% 5.0 mph W8.0 kmh W 12.0 mph19.3 kmh 30.52 in1033.5 mb 0.00 in0.0 mm 0.00 in/hr0.0 mm/hr 0.00 in0.0 mm
12:06 PM 25.0°F-3.9°C 16.9°F-8.4°C 71% 5.0 mph W8.0 kmh W 17.0 mph27.4 kmh 30.52 in1033.5 mb 0.00 in0.0 mm 0.00 in/hr0.0 mm/hr 0.00 in0.0 mm
11:59 AM 25.3°F-3.7°C 17.6°F-8.0°C 72% 5.0 mph W8.0 kmh W 12.0 mph19.3 kmh 30.52 in1033.5 mb 0.00 in0.0 mm 0.00 in/hr0.0 mm/hr 0.00 in0.0 mm
11:52 AM 24.6°F-4.1°C 17.6°F-8.0°C 74% 5.0 mph W8.0 kmh W 9.0 mph14.5 kmh 30.52 in1033.5 mb 0.00 in0.0 mm 0.00 in/hr0.0 mm/hr 0.00 in0.0 mm
11:45 AM 24.4°F-4.2°C 17.1°F-8.3°C 73% 5.0 mph W8.0 kmh W 9.0 mph14.5 kmh 30.52 in1033.5 mb 0.00 in0.0 mm 0.00 in/hr0.0 mm/hr 0.00 in0.0 mm
11:38 AM 24.3°F-4.3°C 17.2°F-8.2°C 74% 4.0 mph W6.4 kmh W 12.0 mph19.3 kmh 30.52 in1033.5 mb 0.00 in0.0 mm 0.00 in/hr0.0 mm/hr 0.00 in0.0 mm
11:31 AM 23.9°F-4.5°C 17.4°F-8.1°C 76% 5.0 mph W8.0 kmh W 12.0 mph19.3 kmh 30.51 in1033.2 mb 0.00 in0.0 mm 0.00 in/hr0.0 mm/hr 0.00 in0.0 mm
11:24 AM 23.7°F-4.6°C 16.9°F-8.4°C 75% 5.0 mph W8.0 kmh W 9.0 mph14.5 kmh 30.52 in1033.5 mb 0.00 in0.0 mm 0.00 in/hr0.0 mm/hr 0.00 in0.0 mm
11:17 AM 23.4°F-4.8°C 17.2°F-8.2°C 77% 5.0 mph W8.0 kmh W 13.0 mph20.9 kmh 30.52 in1033.5 mb 0.00 in0.0 mm 0.00 in/hr0.0 mm/hr 0.00 in0.0 mm
11:10 AM 22.8°F-5.1°C 16.7°F-8.5°C 77% 4.0 mph W6.4 kmh W 13.0 mph20.9 kmh 30.52 in1033.5 mb 0.00 in0.0 mm 0.00 in/hr0.0 mm/hr 0.00 in0.0 mm
11:03 AM 22.3°F-5.4°C 16.5°F-8.6°C 78% 5.0 mph W8.0 kmh W 15.0 mph24.1 kmh 30.52 in1033.5 mb 0.00 in0.0 mm 0.00 in/hr0.0 mm/hr 0.00 in0.0 mm
10:56 AM 21.7°F-5.7°C 16.2°F-8.8°C 79% 5.0 mph W8.0 kmh W 12.0 mph19.3 kmh 30.51 in1033.2 mb 0.00 in0.0 mm 0.00 in/hr0.0 mm/hr 0.00 in0.0 mm
10:49 AM 21.2°F-6.0°C 16.0°F-8.9°C 80% 5.0 mph W8.0 kmh W 13.0 mph20.9 kmh 30.52 in1033.5 mb 0.00 in0.0 mm 0.00 in/hr0.0 mm/hr 0.00 in0.0 mm
10:42 AM 20.8°F-6.2°C 15.6°F-9.1°C 80% 5.0 mph W8.0 kmh W 9.0 mph14.5 kmh 30.51 in1033.2 mb 0.00 in0.0 mm 0.00 in/hr0.0 mm/hr 0.00 in0.0 mm
10:35 AM 20.5°F-6.4°C 15.4°F-9.2°C 81% 5.0 mph W8.0 kmh W 13.0 mph20.9 kmh 30.50 in1032.8 mb 0.00 in0.0 mm 0.00 in/hr0.0 mm/hr 0.00 in0.0 mm
10:28 AM 19.8°F-6.8°C 15.3°F-9.3°C 82% 5.0 mph W8.0 kmh W 13.0 mph20.9 kmh 30.50 in1032.8 mb 0.00 in0.0 mm 0.00 in/hr0.0 mm/hr 0.00 in0.0 mm
10:21 AM 19.0°F-7.2°C 14.7°F-9.6°C 83% 3.0 mph W4.8 kmh W 8.0 mph12.9 kmh 30.50 in1032.8 mb 0.00 in0.0 mm 0.00 in/hr0.0 mm/hr 0.00 in0.0 mm
10:14 AM 18.3°F-7.6°C 14.2°F-9.9°C 83% 4.0 mph W6.4 kmh W 9.0 mph14.5 kmh 30.50 in1032.8 mb 0.00 in0.0 mm 0.00 in/hr0.0 mm/hr 0.00 in0.0 mm
10:07 AM 17.8°F-7.9°C 13.8°F-10.1°C 84% 4.0 mph W6.4 kmh W 8.0 mph12.9 kmh 30.49 in1032.5 mb 0.00 in0.0 mm 0.00 in/hr0.0 mm/hr 0.00 in0.0 mm
10:00 AM 17.2°F-8.2°C 13.6°F-10.2°C 85% 4.0 mph W6.4 kmh W 8.0 mph12.9 kmh 30.49 in1032.5 mb 0.00 in0.0 mm 0.00 in/hr0.0 mm/hr 0.00 in0.0 mm
09:53 AM 16.9°F-8.4°C 13.1°F-10.5°C 85% 3.0 mph WSW4.8 kmh WSW 7.0 mph11.3 kmh 30.49 in1032.5 mb 0.00 in0.0 mm 0.00 in/hr0.0 mm/hr 0.00 in0.0 mm
09:46 AM 16.3°F-8.7°C 12.9°F-10.6°C 86% 3.0 mph WSW4.8 kmh WSW 8.0 mph12.9 kmh 30.49 in1032.5 mb 0.00 in0.0 mm 0.00 in/hr0.0 mm/hr 0.00 in0.0 mm
09:39 AM 15.8°F-9.0°C 12.4°F-10.9°C 86% 3.0 mph WSW4.8 kmh WSW 8.0 mph12.9 kmh 30.48 in1032.2 mb 0.00 in0.0 mm 0.00 in/hr0.0 mm/hr 0.00 in0.0 mm
09:32 AM 15.4°F-9.2°C 12.2°F-11.0°C 87% 1.0 mph WSW1.6 kmh WSW 7.0 mph11.3 kmh 30.48 in1032.2 mb 0.00 in0.0 mm 0.00 in/hr0.0 mm/hr 0.00 in0.0 mm
09:25 AM 15.1°F-9.4°C 12.2°F-11.0°C 88% 1.0 mph WSW1.6 kmh WSW 5.0 mph8.0 kmh 30.48 in1032.2 mb 0.00 in0.0 mm 0.00 in/hr0.0 mm/hr 0.00 in0.0 mm
09:18 AM 14.5°F-9.7°C 11.7°F-11.3°C 88% 1.0 mph W1.6 kmh W 7.0 mph11.3 kmh 30.48 in1032.2 mb 0.00 in0.0 mm 0.00 in/hr0.0 mm/hr 0.00 in0.0 mm
09:11 AM 14.0°F-10.0°C 11.1°F-11.6°C 88% 3.0 mph W4.8 kmh W 7.0 mph11.3 kmh 30.47 in1031.8 mb 0.00 in0.0 mm 0.00 in/hr0.0 mm/hr 0.00 in0.0 mm
09:04 AM 13.6°F-10.2°C 10.8°F-11.8°C 88% 3.0 mph W4.8 kmh W 7.0 mph11.3 kmh 30.47 in1031.8 mb 0.00 in0.0 mm 0.00 in/hr0.0 mm/hr 0.00 in0.0 mm
08:57 AM 13.3°F-10.4°C 10.6°F-11.9°C 89% 3.0 mph WSW4.8 kmh WSW 7.0 mph11.3 kmh 30.47 in1031.8 mb 0.00 in0.0 mm 0.00 in/hr0.0 mm/hr 0.00 in0.0 mm
08:50 AM 12.7°F-10.7°C 10.2°F-12.1°C 89% 3.0 mph WSW4.8 kmh WSW 5.0 mph8.0 kmh 30.46 in1031.5 mb 0.00 in0.0 mm 0.00 in/hr0.0 mm/hr 0.00 in0.0 mm
08:43 AM 12.0°F-11.1°C 9.5°F-12.5°C 89% 1.0 mph W1.6 kmh W 5.0 mph8.0 kmh 30.46 in1031.5 mb 0.00 in0.0 mm 0.00 in/hr0.0 mm/hr 0.00 in0.0 mm
08:36 AM 11.5°F-11.4°C 9.0°F-12.8°C 89% Calm Calm 4.0 mph6.4 kmh 30.46 in1031.5 mb 0.00 in0.0 mm 0.00 in/hr0.0 mm/hr 0.00 in0.0 mm
08:29 AM 11.1°F-11.6°C 8.4°F-13.1°C 89% Calm Calm 3.0 mph4.8 kmh 30.45 in1031.2 mb 0.00 in0.0 mm 0.00 in/hr0.0 mm/hr 0.00 in0.0 mm
08:22 AM 10.8°F-11.8°C 8.2°F-13.2°C 89% Calm Calm 4.0 mph6.4 kmh 30.45 in1031.2 mb 0.00 in0.0 mm 0.00 in/hr0.0 mm/hr 0.00 in0.0 mm
08:15 AM 10.8°F-11.8°C 7.9°F-13.4°C 88% Calm Calm 4.0 mph6.4 kmh 30.44 in1030.8 mb 0.00 in0.0 mm 0.00 in/hr0.0 mm/hr 0.00 in0.0 mm
08:08 AM 10.6°F-11.9°C 7.7°F-13.5°C 88% Calm Calm 3.0 mph4.8 kmh 30.43 in1030.5 mb 0.00 in0.0 mm 0.00 in/hr0.0 mm/hr 0.00 in0.0 mm
08:01 AM 10.4°F-12.0°C 7.5°F-13.6°C 88% Calm Calm 4.0 mph6.4 kmh 30.43 in1030.5 mb 0.00 in0.0 mm 0.00 in/hr0.0 mm/hr 0.00 in0.0 mm
07:54 AM 10.4°F-12.0°C 7.5°F-13.6°C 88% Calm Calm 3.0 mph4.8 kmh 30.42 in1030.1 mb 0.00 in0.0 mm 0.00 in/hr0.0 mm/hr 0.00 in0.0 mm
07:47 AM 10.6°F-11.9°C 7.7°F-13.5°C 88% Calm Calm 3.0 mph4.8 kmh 30.42 in1030.1 mb 0.00 in0.0 mm 0.00 in/hr0.0 mm/hr 0.00 in0.0 mm
07:40 AM 10.6°F-11.9°C 7.7°F-13.5°C 88% Calm Calm 3.0 mph4.8 kmh 30.41 in1029.8 mb 0.00 in0.0 mm 0.00 in/hr0.0 mm/hr 0.00 in0.0 mm
07:33 AM 10.8°F-11.8°C 7.9°F-13.4°C 88% Calm Calm 1.0 mph1.6 kmh 30.41 in1029.8 mb 0.00 in0.0 mm 0.00 in/hr0.0 mm/hr 0.00 in0.0 mm
07:26 AM 10.8°F-11.8°C 7.9°F-13.4°C 88% Calm Calm 3.0 mph4.8 kmh 30.40 in1029.5 mb 0.00 in0.0 mm 0.00 in/hr0.0 mm/hr 0.00 in0.0 mm
07:19 AM 11.1°F-11.6°C 8.2°F-13.2°C 88% Calm Calm 4.0 mph6.4 kmh 30.40 in1029.5 mb 0.00 in0.0 mm 0.00 in/hr0.0 mm/hr 0.00 in0.0 mm
07:12 AM 11.3°F-11.5°C 8.4°F-13.1°C 88% 1.0 mph WSW1.6 kmh WSW 4.0 mph6.4 kmh 30.39 in1029.1 mb 0.00 in0.0 mm 0.00 in/hr0.0 mm/hr 0.00 in0.0 mm
07:05 AM 11.5°F-11.4°C 8.6°F-13.0°C 88% Calm Calm 4.0 mph6.4 kmh 30.39 in1029.1 mb 0.00 in0.0 mm 0.00 in/hr0.0 mm/hr 0.00 in0.0 mm
06:58 AM 11.7°F-11.3°C 8.8°F-12.9°C 88% 1.0 mph WSW1.6 kmh WSW 4.0 mph6.4 kmh 30.39 in1029.1 mb 0.00 in0.0 mm 0.00 in/hr0.0 mm/hr 0.00 in0.0 mm
06:51 AM 11.8°F-11.2°C 9.0°F-12.8°C 88% 1.0 mph WSW1.6 kmh WSW 5.0 mph8.0 kmh 30.39 in1029.1 mb 0.00 in0.0 mm 0.00 in/hr0.0 mm/hr 0.00 in0.0 mm
06:44 AM 11.8°F-11.2°C 9.0°F-12.8°C 88% 3.0 mph W4.8 kmh W 9.0 mph14.5 kmh 30.39 in1029.1 mb 0.00 in0.0 mm 0.00 in/hr0.0 mm/hr 0.00 in0.0 mm
06:37 AM 11.8°F-11.2°C 9.0°F-12.8°C 88% 1.0 mph W1.6 kmh W 8.0 mph12.9 kmh 30.38 in1028.8 mb 0.00 in0.0 mm 0.00 in/hr0.0 mm/hr 0.00 in0.0 mm
06:30 AM 12.0°F-11.1°C 9.1°F-12.7°C 88% 1.0 mph W1.6 kmh W 7.0 mph11.3 kmh 30.38 in1028.8 mb 0.00 in0.0 mm 0.00 in/hr0.0 mm/hr 0.00 in0.0 mm
06:23 AM 12.0°F-11.1°C 9.1°F-12.7°C 88% 1.0 mph W1.6 kmh W 8.0 mph12.9 kmh 30.37 in1028.4 mb 0.00 in0.0 mm 0.00 in/hr0.0 mm/hr 0.00 in0.0 mm
06:16 AM 12.2°F-11.0°C 9.3°F-12.6°C 88% 3.0 mph W4.8 kmh W 8.0 mph12.9 kmh 30.37 in1028.4 mb 0.00 in0.0 mm 0.00 in/hr0.0 mm/hr 0.00 in0.0 mm
06:09 AM 12.4°F-10.9°C 9.5°F-12.5°C 88% 3.0 mph W4.8 kmh W 7.0 mph11.3 kmh 30.36 in1028.1 mb 0.00 in0.0 mm 0.00 in/hr0.0 mm/hr 0.00 in0.0 mm
06:02 AM 12.4°F-10.9°C 9.5°F-12.5°C 88% 3.0 mph W4.8 kmh W 7.0 mph11.3 kmh 30.36 in1028.1 mb 0.00 in0.0 mm 0.00 in/hr0.0 mm/hr 0.00 in0.0 mm
05:55 AM 12.6°F-10.8°C 9.7°F-12.4°C 88% 4.0 mph W6.4 kmh W 7.0 mph11.3 kmh 30.35 in1027.8 mb 0.00 in0.0 mm 0.00 in/hr0.0 mm/hr 0.00 in0.0 mm
05:48 AM 12.7°F-10.7°C 9.9°F-12.3°C 88% 4.0 mph W6.4 kmh W 9.0 mph14.5 kmh 30.35 in1027.8 mb 0.00 in0.0 mm 0.00 in/hr0.0 mm/hr 0.00 in0.0 mm
05:41 AM 12.7°F-10.7°C 9.9°F-12.3°C 88% 4.0 mph W6.4 kmh W 13.0 mph20.9 kmh 30.34 in1027.4 mb 0.00 in0.0 mm 0.00 in/hr0.0 mm/hr 0.00 in0.0 mm
05:34 AM 12.7°F-10.7°C 9.9°F-12.3°C 88% 4.0 mph W6.4 kmh W 8.0 mph12.9 kmh 30.34 in1027.4 mb 0.00 in0.0 mm 0.00 in/hr0.0 mm/hr 0.00 in0.0 mm
05:27 AM 12.7°F-10.7°C 9.9°F-12.3°C 88% 3.0 mph W4.8 kmh W 8.0 mph12.9 kmh 30.34 in1027.4 mb 0.00 in0.0 mm 0.00 in/hr0.0 mm/hr 0.00 in0.0 mm
05:20 AM 12.7°F-10.7°C 9.9°F-12.3°C 88% 3.0 mph W4.8 kmh W 7.0 mph11.3 kmh 30.33 in1027.1 mb 0.00 in0.0 mm 0.00 in/hr0.0 mm/hr 0.00 in0.0 mm
05:13 AM 12.9°F-10.6°C 10.0°F-12.2°C 88% 4.0 mph W6.4 kmh W 8.0 mph12.9 kmh 30.33 in1027.1 mb 0.00 in0.0 mm 0.00 in/hr0.0 mm/hr 0.00 in0.0 mm
05:06 AM 12.9°F-10.6°C 10.0°F-12.2°C 88% 3.0 mph W4.8 kmh W 8.0 mph12.9 kmh 30.32 in1026.8 mb 0.00 in0.0 mm 0.00 in/hr0.0 mm/hr 0.00 in0.0 mm
04:59 AM 12.9°F-10.6°C 10.0°F-12.2°C 88% 1.0 mph WSW1.6 kmh WSW 8.0 mph12.9 kmh 30.32 in1026.8 mb 0.00 in0.0 mm 0.00 in/hr0.0 mm/hr 0.00 in0.0 mm
04:52 AM 12.9°F-10.6°C 10.0°F-12.2°C 88% 3.0 mph W4.8 kmh W 8.0 mph12.9 kmh 30.32 in1026.8 mb 0.00 in0.0 mm 0.00 in/hr0.0 mm/hr 0.00 in0.0 mm
04:45 AM 12.7°F-10.7°C 9.5°F-12.5°C 87% 3.0 mph WSW4.8 kmh WSW 7.0 mph11.3 kmh 30.32 in1026.8 mb 0.00 in0.0 mm 0.00 in/hr0.0 mm/hr 0.00 in0.0 mm
04:38 AM 12.6°F-10.8°C 9.3°F-12.6°C 87% 4.0 mph W6.4 kmh W 12.0 mph19.3 kmh 30.31 in1026.4 mb 0.00 in0.0 mm 0.00 in/hr0.0 mm/hr 0.00 in0.0 mm
04:31 AM 12.4°F-10.9°C 9.1°F-12.7°C 87% 4.0 mph W6.4 kmh W 12.0 mph19.3 kmh 30.31 in1026.4 mb 0.00 in0.0 mm 0.00 in/hr0.0 mm/hr 0.00 in0.0 mm
04:24 AM 12.4°F-10.9°C 9.1°F-12.7°C 87% 4.0 mph W6.4 kmh W 9.0 mph14.5 kmh 30.30 in1026.1 mb 0.00 in0.0 mm 0.00 in/hr0.0 mm/hr 0.00 in0.0 mm
04:17 AM 12.2°F-11.0°C 9.1°F-12.7°C 87% 4.0 mph W6.4 kmh W 16.0 mph25.7 kmh 30.30 in1026.1 mb 0.00 in0.0 mm 0.00 in/hr0.0 mm/hr 0.00 in0.0 mm
04:10 AM 11.8°F-11.2°C 8.8°F-12.9°C 87% 4.0 mph W6.4 kmh W 16.0 mph25.7 kmh 30.30 in1026.1 mb 0.00 in0.0 mm 0.00 in/hr0.0 mm/hr 0.00 in0.0 mm
04:03 AM 11.8°F-11.2°C 8.6°F-13.0°C 87% 4.0 mph W6.4 kmh W 15.0 mph24.1 kmh 30.30 in1026.1 mb 0.00 in0.0 mm 0.00 in/hr0.0 mm/hr 0.00 in0.0 mm
03:56 AM 11.7°F-11.3°C 8.4°F-13.1°C 87% 4.0 mph W6.4 kmh W 15.0 mph24.1 kmh 30.29 in1025.7 mb 0.00 in0.0 mm 0.00 in/hr0.0 mm/hr 0.00 in0.0 mm
03:49 AM 11.5°F-11.4°C 8.4°F-13.1°C 87% 3.0 mph W4.8 kmh W 8.0 mph12.9 kmh 30.29 in1025.7 mb 0.00 in0.0 mm 0.00 in/hr0.0 mm/hr 0.00 in0.0 mm
03:42 AM 11.5°F-11.4°C 8.1°F-13.3°C 86% 1.0 mph W1.6 kmh W 5.0 mph8.0 kmh 30.29 in1025.7 mb 0.00 in0.0 mm 0.00 in/hr0.0 mm/hr 0.00 in0.0 mm
03:35 AM 11.5°F-11.4°C 8.1°F-13.3°C 86% 3.0 mph W4.8 kmh W 9.0 mph14.5 kmh 30.28 in1025.4 mb 0.00 in0.0 mm 0.00 in/hr0.0 mm/hr 0.00 in0.0 mm
03:28 AM 11.7°F-11.3°C 8.2°F-13.2°C 86% 4.0 mph W6.4 kmh W 12.0 mph19.3 kmh 30.28 in1025.4 mb 0.00 in0.0 mm 0.00 in/hr0.0 mm/hr 0.00 in0.0 mm
03:21 AM 11.7°F-11.3°C 8.2°F-13.2°C 86% 3.0 mph W4.8 kmh W 11.0 mph17.7 kmh 30.27 in1025.1 mb 0.00 in0.0 mm 0.00 in/hr0.0 mm/hr 0.00 in0.0 mm
03:14 AM 11.7°F-11.3°C 8.2°F-13.2°C 86% 3.0 mph W4.8 kmh W 12.0 mph19.3 kmh 30.27 in1025.1 mb 0.00 in0.0 mm 0.00 in/hr0.0 mm/hr 0.00 in0.0 mm
03:07 AM 11.7°F-11.3°C 8.2°F-13.2°C 86% 3.0 mph W4.8 kmh W 12.0 mph19.3 kmh 30.27 in1025.1 mb 0.00 in0.0 mm 0.00 in/hr0.0 mm/hr 0.00 in0.0 mm
03:00 AM 11.7°F-11.3°C 8.1°F-13.3°C 85% 4.0 mph W6.4 kmh W 9.0 mph14.5 kmh 30.27 in1025.1 mb 0.00 in0.0 mm 0.00 in/hr0.0 mm/hr 0.00 in0.0 mm
02:53 AM 11.8°F-11.2°C 8.2°F-13.2°C 85% 4.0 mph W6.4 kmh W 9.0 mph14.5 kmh 30.27 in1025.1 mb 0.00 in0.0 mm 0.00 in/hr0.0 mm/hr 0.00 in0.0 mm
02:46 AM 11.8°F-11.2°C 8.2°F-13.2°C 85% 3.0 mph WSW4.8 kmh WSW 7.0 mph11.3 kmh 30.26 in1024.7 mb 0.00 in0.0 mm 0.00 in/hr0.0 mm/hr 0.00 in0.0 mm
02:39 AM 12.0°F-11.1°C 8.4°F-13.1°C 85% 3.0 mph W4.8 kmh W 8.0 mph12.9 kmh 30.26 in1024.7 mb 0.00 in0.0 mm 0.00 in/hr0.0 mm/hr 0.00 in0.0 mm
02:32 AM 12.2°F-11.0°C 8.6°F-13.0°C 85% 3.0 mph W4.8 kmh W 8.0 mph12.9 kmh 30.25 in1024.4 mb 0.00 in0.0 mm 0.00 in/hr0.0 mm/hr 0.00 in0.0 mm
02:25 AM 12.4°F-10.9°C 8.6°F-13.0°C 85% 3.0 mph W4.8 kmh W 9.0 mph14.5 kmh 30.25 in1024.4 mb 0.00 in0.0 mm 0.00 in/hr0.0 mm/hr 0.00 in0.0 mm
02:18 AM 12.4°F-10.9°C 8.4°F-13.1°C 84% 4.0 mph W6.4 kmh W 9.0 mph14.5 kmh 30.24 in1024.0 mb 0.00 in0.0 mm 0.00 in/hr0.0 mm/hr 0.00 in0.0 mm
02:11 AM 12.2°F-11.0°C 8.2°F-13.2°C 84% 3.0 mph W4.8 kmh W 9.0 mph14.5 kmh 30.24 in1024.0 mb 0.00 in0.0 mm 0.00 in/hr0.0 mm/hr 0.00 in0.0 mm
02:04 AM 12.2°F-11.0°C 8.2°F-13.2°C 84% 4.0 mph W6.4 kmh W 12.0 mph19.3 kmh 30.24 in1024.0 mb 0.00 in0.0 mm 0.00 in/hr0.0 mm/hr 0.00 in0.0 mm
01:57 AM 12.2°F-11.0°C 8.2°F-13.2°C 84% 4.0 mph W6.4 kmh W 12.0 mph19.3 kmh 30.23 in1023.7 mb 0.00 in0.0 mm 0.00 in/hr0.0 mm/hr 0.00 in0.0 mm
01:50 AM 12.4°F-10.9°C 8.1°F-13.3°C 83% 3.0 mph W4.8 kmh W 8.0 mph12.9 kmh 30.23 in1023.7 mb 0.00 in0.0 mm 0.00 in/hr0.0 mm/hr 0.00 in0.0 mm
01:43 AM 12.6°F-10.8°C 8.2°F-13.2°C 83% 3.0 mph W4.8 kmh W 7.0 mph11.3 kmh 30.23 in1023.7 mb 0.00 in0.0 mm 0.00 in/hr0.0 mm/hr 0.00 in0.0 mm
01:36 AM 12.6°F-10.8°C 8.4°F-13.1°C 83% 3.0 mph W4.8 kmh W 7.0 mph11.3 kmh 30.22 in1023.4 mb 0.00 in0.0 mm 0.00 in/hr0.0 mm/hr 0.00 in0.0 mm
01:29 AM 12.7°F-10.7°C 8.6°F-13.0°C 83% 3.0 mph W4.8 kmh W 9.0 mph14.5 kmh 30.22 in1023.4 mb 0.00 in0.0 mm 0.00 in/hr0.0 mm/hr 0.00 in0.0 mm
01:22 AM 12.9°F-10.6°C 8.8°F-12.9°C 83% 3.0 mph W4.8 kmh W 5.0 mph8.0 kmh 30.22 in1023.4 mb 0.00 in0.0 mm 0.00 in/hr0.0 mm/hr 0.00 in0.0 mm
01:15 AM 13.3°F-10.4°C 8.8°F-12.9°C 82% 3.0 mph W4.8 kmh W 7.0 mph11.3 kmh 30.21 in1023.0 mb 0.00 in0.0 mm 0.00 in/hr0.0 mm/hr 0.00 in0.0 mm
01:08 AM 13.5°F-10.3°C 9.0°F-12.8°C 82% 3.0 mph W4.8 kmh W 7.0 mph11.3 kmh 30.21 in1023.0 mb 0.00 in0.0 mm 0.00 in/hr0.0 mm/hr 0.00 in0.0 mm
01:01 AM 13.5°F-10.3°C 9.0°F-12.8°C 82% 3.0 mph W4.8 kmh W 5.0 mph8.0 kmh 30.21 in1023.0 mb 0.00 in0.0 mm 0.00 in/hr0.0 mm/hr 0.00 in0.0 mm
12:54 AM 13.6°F-10.2°C 9.1°F-12.7°C 82% 4.0 mph W6.4 kmh W 8.0 mph12.9 kmh 30.20 in1022.7 mb 0.00 in0.0 mm 0.00 in/hr0.0 mm/hr 0.00 in0.0 mm
12:47 AM 13.8°F-10.1°C 9.0°F-12.8°C 81% 3.0 mph W4.8 kmh W 8.0 mph12.9 kmh 30.20 in1022.7 mb 0.00 in0.0 mm 0.00 in/hr0.0 mm/hr 0.00 in0.0 mm
12:40 AM 14.0°F-10.0°C 9.3°F-12.6°C 81% 3.0 mph W4.8 kmh W 9.0 mph14.5 kmh 30.20 in1022.7 mb 0.00 in0.0 mm 0.00 in/hr0.0 mm/hr 0.00 in0.0 mm
12:33 AM 14.2°F-9.9°C 9.5°F-12.5°C 81% 4.0 mph W6.4 kmh W 9.0 mph14.5 kmh 30.20 in1022.7 mb 0.00 in0.0 mm 0.00 in/hr0.0 mm/hr 0.00 in0.0 mm
12:26 AM 14.4°F-9.8°C 9.5°F-12.5°C 81% 4.0 mph W6.4 kmh W 13.0 mph20.9 kmh 30.19 in1022.4 mb 0.00 in0.0 mm 0.00 in/hr0.0 mm/hr 0.00 in0.0 mm
12:19 AM 14.4°F-9.8°C 9.7°F-12.4°C 81% 4.0 mph W6.4 kmh W 9.0 mph14.5 kmh 30.19 in1022.4 mb 0.00 in0.0 mm 0.00 in/hr0.0 mm/hr 0.00 in0.0 mm
12:12 AM 14.5°F-9.7°C 9.7°F-12.4°C 81% 4.0 mph W6.4 kmh W 9.0 mph14.5 kmh 30.18 in1022.0 mb 0.00 in0.0 mm 0.00 in/hr0.0 mm/hr 0.00 in0.0 mm
12:05 AM 14.5°F-9.7°C 9.9°F-12.3°C 81% 4.0 mph W6.4 kmh W 9.0 mph14.5 kmh 30.18 in1022.0 mb 0.00 in0.0 mm 0.00 in/hr0.0 mm/hr 0.00 in0.0 mm